Rainsville, New Mexico
Current Conditions -  °F | °C
As of 9:53 PM on Thursday 30 Oct 2014 (Local Time) from KLVS Reporting Station
Clear Clear  
Wind Chill: 45°   Ceiling: Unl
Heat Index: 45°   Visibility: 10mi
Dew Point: 21°   Wind: 3mph
Humidity: 39%   Direction: 250°WSW
Pressure: 30.44"   Gusts: NA
Location:  35.98°N, 105.21°W
Report Text: KLVS 310353Z AUTO 25003KT 10SM CLR 07/M06 A3044 RMK AO2 SLP248 T00721061
Loading
Personal Weather Stations






























Interactive Weather Map
Tropical Storm Tracking
New forecast layout! Learn more

10-Day Weather Forecast

Advertisements
Track Severe Weather on mobile